createdAt,value
2019-03-05T00:00:07.996Z,60.47
2019-03-05T00:01:06.778Z,58.67
2019-03-05T00:02:02.566Z,62.56
2019-03-05T00:03:10.166Z,66.08
2019-03-05T00:04:03.729Z,66.36
2019-03-05T00:05:02.400Z,67.88
2019-03-05T00:05:58.252Z,63.79
2019-03-05T00:06:59.673Z,54.58
2019-03-05T00:08:03.725Z,47.82
2019-03-05T00:09:04.813Z,39.57
2019-03-05T00:10:08.163Z,39.37
2019-03-05T00:11:06.947Z,35.30
2019-03-05T00:12:06.296Z,33.40
2019-03-05T00:13:04.178Z,28.75
2019-03-05T00:14:05.640Z,24.95
2019-03-05T00:15:07.578Z,24.57
2019-03-05T00:16:07.532Z,24.48
2019-03-05T00:16:55.852Z,25.43
2019-03-05T00:17:59.612Z,23.24
2019-03-05T00:19:05.353Z,19.83
2019-03-05T00:19:55.420Z,19.54
2019-03-05T00:20:54.282Z,18.02
2019-03-05T00:22:03.137Z,13.76
2019-03-05T00:22:53.534Z,10.63
2019-03-05T00:23:58.127Z,10.91
2019-03-05T00:24:50.408Z,12.43
2019-03-05T00:25:50.331Z,11.10
2019-03-05T00:26:50.330Z,11.00
2019-03-05T00:28:01.134Z,6.73
2019-03-05T00:28:50.630Z,5.79
2019-03-05T00:29:50.164Z,2.56
2019-03-05T00:30:59.900Z,3.51
2019-03-05T00:31:59.799Z,1.04
2019-03-05T00:33:01.921Z,2.47
2019-03-05T00:33:59.912Z,3.50
2019-03-05T00:35:00.703Z,1.32
2019-03-05T00:36:03.559Z,0.00
2019-03-05T00:37:16.631Z,0.00
2019-03-05T00:38:10.187Z,0.00
2019-03-05T00:39:04.275Z,0.66
2019-03-05T00:39:58.645Z,0.66
2019-03-05T00:41:04.631Z,0.00
2019-03-05T00:41:49.671Z,0.00
2019-03-05T00:42:49.623Z,0.00
2019-03-05T00:43:49.576Z,0.00
2019-03-05T00:44:49.534Z,0.00
2019-03-05T00:45:49.492Z,0.00
2019-03-05T00:46:49.450Z,0.00
2019-03-05T00:47:49.414Z,0.00
2019-03-05T00:48:49.370Z,0.00
2019-03-05T00:49:49.333Z,0.00
2019-03-05T00:50:49.289Z,0.00
2019-03-05T00:51:49.242Z,0.00
2019-03-05T00:52:49.219Z,0.00
2019-03-05T00:53:49.158Z,0.00
2019-03-05T00:54:49.114Z,0.00
2019-03-05T00:55:49.932Z,0.00
2019-03-05T00:56:49.032Z,0.00
2019-03-05T00:57:48.996Z,0.00
2019-03-05T00:58:48.945Z,0.00
2019-03-05T00:59:48.908Z,0.00
2019-03-05T01:00:48.863Z,0.00
2019-03-05T01:01:48.823Z,0.00
2019-03-05T01:02:48.783Z,0.00
2019-03-05T01:03:48.880Z,0.00
2019-03-05T01:04:48.738Z,0.00
2019-03-05T01:05:51.845Z,0.00
2019-03-05T01:06:56.759Z,0.00
2019-03-05T01:07:57.790Z,0.00
2019-03-05T01:08:49.141Z,0.00
2019-03-05T01:09:53.672Z,0.00
2019-03-05T01:10:56.268Z,0.00
2019-03-05T01:11:59.105Z,0.00
2019-03-05T01:12:59.417Z,0.00
2019-03-05T01:13:48.437Z,0.00
2019-03-05T01:14:55.459Z,0.00
2019-03-05T01:15:59.622Z,0.00
2019-03-05T01:16:56.081Z,0.00
2019-03-05T01:17:57.720Z,0.00
2019-03-05T01:19:03.692Z,0.00
2019-03-05T01:20:02.425Z,0.00
2019-03-05T01:20:59.609Z,0.00
2019-03-05T01:22:01.208Z,0.00
2019-03-05T01:22:57.812Z,0.00
2019-03-05T01:23:58.834Z,0.00
2019-03-05T01:25:13.265Z,0.00
2019-03-05T01:25:56.975Z,0.00
2019-03-05T01:26:57.836Z,0.00
2019-03-05T01:27:58.116Z,0.00
2019-03-05T01:28:48.160Z,0.00
2019-03-05T01:29:49.022Z,0.00
2019-03-05T01:30:47.978Z,0.00
2019-03-05T01:31:57.509Z,0.00
2019-03-05T01:32:57.034Z,0.00
2019-03-05T01:33:56.640Z,0.00
2019-03-05T01:34:59.902Z,0.00
2019-03-05T01:36:02.280Z,0.00
2019-03-05T01:36:58.897Z,0.00
2019-03-05T01:37:58.704Z,0.00
2019-03-05T01:38:58.895Z,0.00
2019-03-05T01:39:58.690Z,0.00
2019-03-05T01:40:55.716Z,0.00
2019-03-05T01:42:02.616Z,0.00
2019-03-05T01:42:57.442Z,0.00
2019-03-05T01:43:58.075Z,0.00
2019-03-05T01:44:59.570Z,0.00
2019-03-05T01:46:00.202Z,0.00
2019-03-05T01:46:56.876Z,0.00
2019-03-05T01:47:59.067Z,0.00
2019-03-05T01:48:57.741Z,0.00
2019-03-05T01:49:55.296Z,0.00
2019-03-05T01:51:01.240Z,0.00
2019-03-05T01:51:54.348Z,0.00
2019-03-05T01:52:58.597Z,0.00
2019-03-05T01:54:18.645Z,0.00
2019-03-05T01:54:47.355Z,0.00
2019-03-05T01:55:59.220Z,0.00
2019-03-05T01:56:56.264Z,0.00
2019-03-05T01:57:53.700Z,0.00
2019-03-05T01:58:57.395Z,0.00
2019-03-05T02:00:06.603Z,0.00
2019-03-05T02:01:02.554Z,0.00
2019-03-05T02:02:00.772Z,0.00
2019-03-05T02:02:56.356Z,0.00
2019-03-05T02:03:58.012Z,0.00
2019-03-05T02:04:53.228Z,0.00
2019-03-05T02:05:55.759Z,0.00
2019-03-05T02:06:56.270Z,0.00
2019-03-05T02:07:58.718Z,0.00
2019-03-05T02:08:58.184Z,0.00
2019-03-05T02:09:56.340Z,0.00
2019-03-05T02:10:58.658Z,0.00
2019-03-05T02:12:03.650Z,0.00
2019-03-05T02:13:18.082Z,0.00
2019-03-05T02:14:01.662Z,0.00
2019-03-05T02:14:57.408Z,0.00
2019-03-05T02:15:58.566Z,0.00
2019-03-05T02:16:58.849Z,0.00
2019-03-05T02:18:55.474Z,0.28
2019-03-05T02:20:03.736Z,1.23
2019-03-05T02:21:01.937Z,0.38
2019-03-05T02:24:05.870Z,1.14
2019-03-05T02:49:16.098Z,0.00
2019-03-05T02:50:19.485Z,0.66
2019-03-05T03:01:12.238Z,6.45
2019-03-05T03:02:04.646Z,5.78
2019-03-05T03:22:37.348Z,8.06
2019-03-05T03:24:17.726Z,7.20
2019-03-05T03:27:24.072Z,7.01
2019-03-05T03:58:48.135Z,20.57
2019-03-05T04:02:00.075Z,20.86
2019-03-05T04:05:20.647Z,20.96
2019-03-05T04:07:58.286Z,20.96
2019-03-05T04:10:23.021Z,18.59
2019-03-05T04:11:32.658Z,18.87
2019-03-05T04:12:22.867Z,19.54
2019-03-05T04:13:35.885Z,17.35
2019-03-05T04:14:39.923Z,16.97
2019-03-05T04:15:37.519Z,17.73
2019-03-05T04:16:34.776Z,17.16
2019-03-05T04:17:40.846Z,16.50
2019-03-05T04:18:37.406Z,14.41
2019-03-05T04:19:32.187Z,14.51
2019-03-05T04:20:36.442Z,14.32
2019-03-05T04:21:32.511Z,14.41
2019-03-05T04:22:38.267Z,14.03
2019-03-05T04:23:36.227Z,13.65
2019-03-05T04:24:29.047Z,11.76
2019-03-05T04:25:30.180Z,10.71
2019-03-05T04:26:28.801Z,10.43
2019-03-05T04:27:33.918Z,10.62
2019-03-05T04:28:31.172Z,9.67
2019-03-05T04:29:32.285Z,9.58
2019-03-05T04:30:32.379Z,9.86
2019-03-05T04:31:31.440Z,9.29
2019-03-05T04:32:35.630Z,10.52
2019-03-05T04:33:37.431Z,10.62
2019-03-05T04:34:41.499Z,11.29
2019-03-05T04:35:24.594Z,14.51
2019-03-05T04:36:26.460Z,14.22
2019-03-05T04:37:21.221Z,14.89
2019-03-05T04:38:21.180Z,16.50
2019-03-05T04:39:21.295Z,16.41
2019-03-05T04:40:24.567Z,16.50
2019-03-05T04:41:23.769Z,17.16
2019-03-05T04:42:22.940Z,16.70
2019-03-05T04:43:21.000Z,17.55
2019-03-05T04:44:20.928Z,17.73
2019-03-05T04:45:20.886Z,16.12
2019-03-05T04:46:21.016Z,16.60
2019-03-05T04:47:28.204Z,18.98
2019-03-05T04:48:26.257Z,18.98
2019-03-05T04:49:26.700Z,20.87
2019-03-05T04:50:29.124Z,21.06
2019-03-05T04:51:21.779Z,20.02
2019-03-05T04:52:24.078Z,29.13
2019-03-05T04:53:24.074Z,28.85
2019-03-05T04:54:24.506Z,28.56
2019-03-05T04:55:20.782Z,30.65
2019-03-05T04:56:21.561Z,28.18
2019-03-05T04:57:24.831Z,29.41
2019-03-05T04:58:27.345Z,29.51
2019-03-05T04:59:23.524Z,32.17
2019-03-05T05:00:24.903Z,30.83
2019-03-05T05:01:21.021Z,35.49
2019-03-05T05:02:26.560Z,33.11
2019-03-05T05:03:26.034Z,33.30
2019-03-05T05:04:26.634Z,33.30
2019-03-05T05:05:21.169Z,33.21
2019-03-05T05:06:20.062Z,32.07
2019-03-05T05:07:26.970Z,33.30
2019-03-05T05:08:20.240Z,32.54
2019-03-05T05:09:27.078Z,33.02
2019-03-05T05:10:20.013Z,32.35
2019-03-05T05:11:27.822Z,33.40
2019-03-05T05:12:24.202Z,31.60
2019-03-05T05:13:19.824Z,30.65
2019-03-05T05:14:23.939Z,29.60
2019-03-05T05:15:21.260Z,32.17
2019-03-05T05:16:19.710Z,33.11
2019-03-05T05:17:19.619Z,32.07
2019-03-05T05:18:24.634Z,30.36
2019-03-05T05:19:24.042Z,28.94
2019-03-05T05:20:19.545Z,29.03
2019-03-05T05:21:24.349Z,30.55
2019-03-05T05:22:25.604Z,30.55
2019-03-05T05:23:23.229Z,30.74
2019-03-05T05:24:23.058Z,30.46
2019-03-05T05:25:25.014Z,28.56
2019-03-05T05:26:25.044Z,30.17
2019-03-05T05:27:19.160Z,28.56
2019-03-05T05:28:26.497Z,28.66
2019-03-05T05:29:19.146Z,28.27
2019-03-05T05:30:19.051Z,26.57
2019-03-05T05:31:19.161Z,26.38
2019-03-05T05:32:22.486Z,25.90
2019-03-05T05:33:18.993Z,25.62
2019-03-05T05:34:19.301Z,25.62
2019-03-05T05:35:19.069Z,24.57
2019-03-05T05:36:21.308Z,23.44
2019-03-05T05:37:19.113Z,21.54
2019-03-05T05:38:20.259Z,21.63
2019-03-05T05:39:18.663Z,23.05
2019-03-05T05:40:19.879Z,20.97
2019-03-05T05:41:20.219Z,20.97
2019-03-05T05:42:18.507Z,20.50
2019-03-05T05:43:18.488Z,18.79
2019-03-05T05:44:20.147Z,17.83
2019-03-05T05:45:20.894Z,15.66
2019-03-05T05:46:26.683Z,13.19
2019-03-05T05:47:18.407Z,12.52
2019-03-05T05:48:18.257Z,12.15
2019-03-05T05:49:18.251Z,10.72
2019-03-05T05:50:25.221Z,10.53
2019-03-05T05:51:18.830Z,9.48
2019-03-05T05:52:19.418Z,9.39
2019-03-05T05:53:26.024Z,8.92
2019-03-05T05:54:18.239Z,7.30
2019-03-05T05:55:22.496Z,6.26
2019-03-05T05:56:25.579Z,5.31
2019-03-05T05:57:22.677Z,4.46
2019-03-05T05:58:26.016Z,3.79
2019-03-05T05:59:25.355Z,3.03
2019-03-05T06:00:27.324Z,2.18
2019-03-05T06:01:18.584Z,2.09
2019-03-05T06:02:22.559Z,1.42
2019-03-05T06:03:20.666Z,2.94
2019-03-05T06:04:23.057Z,1.23
2019-03-05T06:05:18.686Z,0.66
2019-03-05T06:06:17.925Z,0.00
2019-03-05T06:07:17.504Z,0.09
2019-03-05T06:08:28.174Z,0.00
2019-03-05T06:09:25.029Z,0.00
2019-03-05T06:10:25.930Z,0.00
2019-03-05T06:11:24.549Z,0.00
2019-03-05T06:12:26.880Z,0.00
2019-03-05T06:13:19.444Z,0.00
2019-03-05T06:14:26.718Z,0.00
2019-03-05T06:15:27.342Z,0.00
2019-03-05T06:16:17.836Z,0.00
2019-03-05T06:17:18.833Z,0.00
2019-03-05T06:18:17.572Z,0.00
2019-03-05T06:19:23.190Z,0.00
2019-03-05T06:20:23.531Z,0.00
2019-03-05T06:21:21.820Z,0.00
2019-03-05T06:22:23.965Z,0.00
2019-03-05T06:23:17.976Z,0.00
2019-03-05T06:24:25.743Z,0.00
2019-03-05T06:25:17.045Z,0.00
2019-03-05T06:26:26.551Z,0.00
2019-03-05T06:27:26.287Z,0.00
2019-03-05T06:28:25.616Z,0.00
2019-03-05T06:29:28.522Z,0.00
2019-03-05T06:30:17.802Z,0.00
2019-03-05T06:31:16.490Z,0.00
2019-03-05T06:32:18.608Z,0.00
2019-03-05T06:33:27.913Z,0.00
2019-03-05T06:34:22.691Z,0.00
2019-03-05T06:35:21.571Z,0.00
2019-03-05T06:36:16.947Z,0.00
2019-03-05T06:37:16.335Z,0.00
2019-03-05T06:38:16.247Z,0.00
2019-03-05T06:39:21.724Z,0.00
2019-03-05T06:40:23.720Z,0.00
2019-03-05T06:41:34.789Z,0.00
2019-03-05T06:42:19.954Z,0.00
2019-03-05T06:43:23.048Z,0.00
2019-03-05T06:44:20.875Z,0.00
2019-03-05T06:45:18.021Z,0.00
2019-03-05T06:46:22.536Z,0.00
2019-03-05T06:47:17.074Z,0.00
2019-03-05T06:48:20.050Z,0.00
2019-03-05T06:49:16.511Z,0.00
2019-03-05T06:50:15.700Z,0.00
2019-03-05T06:51:16.344Z,0.00
2019-03-05T06:52:16.311Z,0.00
2019-03-05T06:53:16.083Z,0.00
2019-03-05T06:54:15.829Z,0.00
2019-03-05T06:55:15.541Z,0.00
2019-03-05T06:56:15.774Z,0.00
2019-03-05T06:57:20.317Z,0.00
2019-03-05T06:58:16.033Z,0.00
2019-03-05T06:59:15.352Z,0.00
2019-03-05T07:00:15.821Z,0.00
2019-03-05T07:01:18.564Z,0.00
2019-03-05T07:02:22.316Z,0.00
2019-03-05T07:03:15.532Z,0.00
2019-03-05T07:04:21.918Z,0.00
2019-03-05T07:05:15.642Z,0.00
2019-03-05T07:06:15.007Z,0.00
2019-03-05T07:07:15.935Z,0.00
2019-03-05T07:08:15.029Z,0.00
2019-03-05T07:09:14.881Z,0.00
2019-03-05T07:10:15.188Z,0.00
2019-03-05T07:11:14.829Z,0.00
2019-03-05T07:12:15.214Z,0.00
2019-03-05T07:13:18.243Z,0.00
2019-03-05T07:14:14.971Z,0.00
2019-03-05T07:15:14.749Z,0.00
2019-03-05T07:16:15.094Z,0.00
2019-03-05T07:17:18.144Z,0.00
2019-03-05T07:18:15.529Z,0.00
2019-03-05T07:19:19.073Z,0.00
2019-03-05T07:20:23.041Z,0.00
2019-03-05T07:21:20.967Z,0.00
2019-03-05T07:22:21.278Z,0.00
2019-03-05T07:23:17.619Z,0.00
2019-03-05T07:24:16.535Z,0.00
2019-03-05T07:25:14.644Z,0.00
2019-03-05T07:26:14.169Z,0.00
2019-03-05T07:27:21.978Z,0.00
2019-03-05T07:28:23.005Z,0.00
2019-03-05T07:29:22.115Z,0.00
2019-03-05T07:30:23.558Z,0.00
2019-03-05T07:31:18.359Z,0.00
2019-03-05T07:32:19.035Z,0.00
2019-03-05T07:33:20.540Z,0.00
2019-03-05T07:34:19.408Z,0.00
2019-03-05T07:35:20.212Z,0.00
2019-03-05T07:36:23.060Z,0.00
2019-03-05T07:37:21.368Z,0.00
2019-03-05T07:38:20.140Z,0.00
2019-03-05T07:39:21.198Z,0.00
2019-03-05T07:40:18.660Z,0.00
2019-03-05T07:41:13.753Z,0.00
2019-03-05T07:42:14.860Z,0.00
2019-03-05T07:43:20.452Z,0.00
2019-03-05T07:44:21.377Z,0.00
2019-03-05T07:45:20.010Z,0.00
2019-03-05T07:46:17.886Z,0.00
2019-03-05T07:47:15.246Z,0.00
2019-03-05T07:48:19.023Z,0.00
2019-03-05T07:49:20.549Z,0.00
2019-03-05T07:50:24.395Z,0.00
2019-03-05T07:51:13.920Z,0.00
2019-03-05T07:52:18.180Z,0.00
2019-03-05T07:53:18.398Z,0.00
2019-03-05T07:54:19.973Z,0.00
2019-03-05T07:55:20.397Z,0.00
2019-03-05T07:56:12.943Z,0.00
2019-03-05T07:57:13.625Z,0.00
2019-03-05T07:58:20.136Z,0.00
2019-03-05T07:59:16.444Z,0.00
2019-03-05T08:00:14.021Z,0.00
2019-03-05T08:01:21.840Z,0.00
2019-03-05T08:02:13.700Z,0.00
2019-03-05T08:03:12.986Z,0.00
2019-03-05T08:04:13.206Z,0.00
2019-03-05T08:05:14.295Z,0.00
2019-03-05T08:06:17.571Z,0.00
2019-03-05T08:07:18.188Z,0.00
2019-03-05T08:08:26.190Z,0.00
2019-03-05T08:09:22.846Z,0.00
2019-03-05T08:10:15.122Z,0.00
2019-03-05T08:11:15.593Z,0.00
2019-03-05T08:12:18.928Z,0.00
2019-03-05T08:13:17.287Z,0.00
2019-03-05T08:14:19.972Z,0.00
2019-03-05T08:15:14.125Z,0.00
2019-03-05T08:16:18.114Z,0.00
2019-03-05T08:17:14.593Z,0.00
2019-03-05T08:18:12.001Z,0.00
2019-03-05T08:19:18.273Z,0.00
2019-03-05T08:20:16.124Z,0.00
2019-03-05T08:21:12.534Z,0.00
2019-03-05T08:22:12.934Z,0.00
2019-03-05T08:23:13.347Z,0.00
2019-03-05T08:24:11.748Z,0.00
2019-03-05T08:25:12.143Z,0.00
2019-03-05T08:26:15.952Z,0.00
2019-03-05T08:27:19.551Z,0.00
2019-03-05T08:28:12.158Z,0.00
2019-03-05T08:29:11.575Z,0.00
2019-03-05T08:30:14.688Z,0.00
2019-03-05T08:31:11.519Z,0.00
2019-03-05T08:32:11.809Z,0.00
2019-03-05T08:33:11.475Z,0.00
2019-03-05T08:34:11.334Z,0.00
2019-03-05T08:35:13.459Z,0.00
2019-03-05T08:36:11.370Z,0.00
2019-03-05T08:37:17.468Z,0.00
2019-03-05T08:38:20.996Z,0.00
2019-03-05T08:39:18.649Z,0.00
2019-03-05T08:40:11.482Z,0.00
2019-03-05T08:41:11.103Z,0.00
2019-03-05T08:42:11.003Z,0.00
2019-03-05T08:43:11.985Z,0.00
2019-03-05T08:44:10.912Z,0.00
2019-03-05T08:45:11.509Z,0.00
2019-03-05T08:46:12.953Z,0.00
2019-03-05T08:47:12.804Z,0.00
2019-03-05T08:48:10.957Z,0.00
2019-03-05T08:49:10.726Z,0.00
2019-03-05T08:50:10.686Z,0.00
2019-03-05T08:51:10.641Z,0.00
2019-03-05T08:52:10.653Z,0.00
2019-03-05T08:53:10.630Z,0.00
2019-03-05T08:54:10.862Z,0.00
2019-03-05T08:55:13.024Z,0.00
2019-03-05T08:56:12.769Z,0.00
2019-03-05T08:57:10.679Z,0.00
2019-03-05T08:58:10.437Z,0.00
2019-03-05T08:59:10.412Z,0.00
2019-03-05T09:00:10.260Z,0.00
2019-03-05T09:01:13.155Z,0.00
2019-03-05T09:02:11.209Z,0.00
2019-03-05T09:03:10.368Z,0.00
2019-03-05T09:04:14.600Z,0.00
2019-03-05T09:05:10.032Z,0.00
2019-03-05T09:06:11.362Z,0.00
2019-03-05T09:07:09.986Z,0.00
2019-03-05T09:08:09.992Z,0.00
2019-03-05T09:09:10.654Z,0.00
2019-03-05T09:10:09.852Z,0.00
2019-03-05T09:11:09.779Z,0.00
2019-03-05T09:12:13.984Z,0.00
2019-03-05T09:13:09.853Z,0.00
2019-03-05T09:14:09.879Z,0.00
2019-03-05T09:15:09.624Z,0.00
2019-03-05T09:16:10.391Z,1.04
2019-03-05T09:17:09.527Z,0.28
2019-03-05T09:18:09.505Z,0.76
2019-03-05T09:19:09.866Z,0.85
2019-03-05T09:20:09.404Z,1.80
2019-03-05T09:21:09.487Z,2.84
2019-03-05T09:22:09.326Z,1.23
2019-03-05T09:23:09.778Z,0.57
2019-03-05T09:24:10.173Z,0.00
2019-03-05T09:25:09.267Z,3.13
2019-03-05T09:26:09.155Z,0.09
2019-03-05T09:27:09.123Z,0.00
2019-03-05T09:28:09.097Z,0.00
2019-03-05T09:29:09.028Z,0.57
2019-03-05T09:30:09.444Z,0.00
2019-03-05T09:31:08.952Z,0.76
2019-03-05T09:32:08.914Z,2.94
2019-03-05T09:33:08.872Z,1.04
2019-03-05T09:34:09.658Z,3.13
2019-03-05T09:35:08.783Z,3.41
2019-03-05T09:36:09.657Z,2.94
2019-03-05T09:37:09.323Z,2.37
2019-03-05T09:38:08.670Z,4.27
2019-03-05T09:39:09.261Z,0.76
2019-03-05T09:40:08.593Z,1.23
2019-03-05T09:41:08.662Z,3.89
2019-03-05T09:42:08.658Z,5.41
2019-03-05T09:43:08.592Z,5.03
2019-03-05T09:57:02.584Z,8.36
2019-03-05T09:58:07.986Z,8.45
2019-03-05T09:59:02.428Z,9.31
2019-03-05T10:00:02.375Z,15.10
2019-03-05T10:01:02.379Z,10.06
2019-03-05T10:02:02.523Z,12.92
2019-03-05T10:03:02.266Z,10.83
2019-03-05T10:04:02.205Z,9.50
2019-03-05T10:05:02.157Z,8.64
2019-03-05T10:06:02.119Z,4.46
2019-03-05T10:07:02.227Z,10.64
2019-03-05T10:08:02.047Z,13.68
2019-03-05T10:09:02.025Z,10.64
2019-03-05T10:10:02.487Z,8.36
2019-03-05T10:11:01.914Z,8.64
2019-03-05T10:12:01.881Z,7.88
2019-03-05T10:13:04.380Z,8.73
2019-03-05T10:14:01.866Z,12.92
2019-03-05T10:15:08.048Z,9.50
2019-03-05T10:16:01.748Z,12.06
2019-03-05T10:17:01.668Z,7.98
2019-03-05T10:18:11.725Z,9.40
2019-03-05T10:19:01.590Z,8.73
2019-03-05T10:20:01.727Z,8.45
2019-03-05T10:21:01.736Z,7.88
2019-03-05T10:22:01.498Z,11.96
2019-03-05T10:23:01.444Z,12.92
2019-03-05T10:24:10.164Z,15.00
2019-03-05T10:25:06.035Z,17.47
2019-03-05T10:26:01.282Z,15.48
2019-03-05T10:27:01.244Z,12.63
2019-03-05T10:28:01.237Z,15.48
2019-03-05T10:29:01.214Z,13.01
2019-03-05T10:30:01.124Z,13.77
2019-03-05T10:31:04.470Z,10.54
2019-03-05T10:32:01.348Z,12.16
2019-03-05T10:33:01.020Z,8.45
2019-03-05T10:34:00.980Z,10.44
2019-03-05T10:35:01.103Z,12.92
2019-03-05T10:36:00.900Z,15.86
2019-03-05T10:37:12.011Z,16.62
2019-03-05T10:38:01.102Z,13.48
2019-03-05T10:39:00.752Z,12.63
2019-03-05T10:40:00.707Z,13.68
2019-03-05T10:41:00.669Z,10.54
2019-03-05T10:42:00.813Z,14.34
2019-03-05T10:43:08.429Z,14.62
2019-03-05T10:44:01.245Z,18.80
2019-03-05T10:45:06.528Z,16.52
2019-03-05T10:46:00.492Z,15.29
2019-03-05T10:47:06.191Z,17.00
2019-03-05T10:48:00.587Z,15.58
2019-03-05T10:49:04.221Z,18.62
2019-03-05T10:50:00.350Z,17.38
2019-03-05T10:51:00.983Z,15.67
2019-03-05T10:52:02.209Z,18.62
2019-03-05T10:53:00.652Z,19.85
2019-03-05T10:54:02.121Z,17.76
2019-03-05T10:55:00.437Z,18.72
2019-03-05T10:56:00.239Z,20.89
2019-03-05T10:57:00.334Z,21.76
2019-03-05T10:57:59.973Z,27.18
2019-03-05T10:58:59.933Z,23.57
2019-03-05T10:59:59.932Z,24.23
2019-03-05T11:01:01.029Z,31.55
2019-03-05T11:02:00.301Z,34.78
2019-03-05T11:03:00.837Z,32.50
2019-03-05T11:04:00.131Z,37.06
2019-03-05T11:04:59.698Z,39.91
2019-03-05T11:05:59.686Z,34.40
2019-03-05T11:07:00.298Z,32.50
2019-03-05T11:07:59.590Z,41.81
2019-03-05T11:08:59.516Z,42.86
2019-03-05T11:10:04.109Z,39.91
2019-03-05T11:11:13.169Z,41.53
2019-03-05T11:11:59.402Z,41.05
2019-03-05T11:13:01.385Z,39.36
2019-03-05T11:13:59.550Z,43.83
2019-03-05T11:15:06.899Z,49.25
2019-03-05T11:15:59.357Z,46.11
2019-03-05T11:17:02.822Z,44.87
2019-03-05T11:17:59.179Z,44.97
2019-03-05T11:19:00.479Z,50.10
2019-03-05T11:20:00.166Z,50.29
2019-03-05T11:20:59.134Z,55.05
2019-03-05T11:21:59.033Z,50.96
2019-03-05T11:22:58.954Z,54.10
2019-03-05T11:23:59.462Z,57.71
2019-03-05T11:24:59.194Z,53.91
2019-03-05T11:25:59.808Z,55.15
2019-03-05T11:26:59.044Z,52.29
2019-03-05T11:27:59.991Z,53.24
2019-03-05T11:29:02.254Z,50.87
2019-03-05T11:30:00.169Z,54.67
2019-03-05T11:31:00.702Z,56.29
2019-03-05T11:31:58.590Z,57.43
2019-03-05T11:32:58.550Z,56.57
2019-03-05T11:33:58.870Z,57.90
2019-03-05T11:35:04.943Z,54.57
2019-03-05T11:36:06.546Z,50.77
2019-03-05T11:37:00.499Z,48.77
2019-03-05T11:38:06.308Z,49.44
2019-03-05T11:38:58.670Z,52.86
2019-03-05T11:40:00.269Z,46.97
2019-03-05T11:40:59.124Z,52.58
2019-03-05T11:41:58.737Z,54.86
2019-03-05T11:42:58.689Z,57.90
2019-03-05T11:44:06.269Z,55.52
2019-03-05T11:45:07.143Z,55.62
2019-03-05T11:45:58.032Z,49.06
2019-03-05T11:47:01.390Z,47.82
2019-03-05T11:47:58.562Z,51.72
2019-03-05T11:49:06.716Z,49.63
2019-03-05T11:49:57.871Z,48.68
2019-03-05T11:50:57.829Z,47.82
2019-03-05T11:51:57.821Z,44.78
2019-03-05T11:52:58.073Z,49.35
2019-03-05T11:53:57.732Z,49.06
2019-03-05T11:54:57.667Z,53.15
2019-03-05T11:55:58.256Z,50.10
2019-03-05T11:57:01.444Z,51.72
2019-03-05T11:58:01.074Z,57.24
2019-03-05T11:59:04.180Z,58.57
2019-03-05T11:59:57.842Z,53.72
2019-03-05T12:00:57.496Z,55.71
2019-03-05T12:01:59.664Z,56.29
2019-03-05T12:02:57.451Z,58.40
2019-03-05T12:03:57.306Z,58.18
2019-03-05T12:04:57.277Z,58.47
2019-03-05T12:05:57.243Z,60.60
2019-03-05T12:07:03.196Z,57.62
2019-03-05T12:07:58.084Z,57.14
2019-03-05T12:08:57.124Z,57.43
2019-03-05T12:09:59.321Z,57.90
2019-03-05T12:10:57.748Z,66.17
2019-03-05T12:11:57.061Z,59.52
2019-03-05T12:12:57.591Z,56.19
2019-03-05T12:13:57.210Z,56.67
2019-03-05T12:14:57.062Z,54.48
2019-03-05T12:15:57.742Z,67.60
2019-03-05T12:17:01.936Z,60.75
2019-03-05T12:18:07.140Z,61.04
2019-03-05T12:19:04.110Z,62.46
2019-03-05T12:20:06.061Z,63.13
2019-03-05T12:20:57.448Z,60.02
2019-03-05T12:22:04.394Z,62.88
2019-03-05T12:22:57.245Z,64.21
2019-03-05T12:23:58.310Z,64.31
2019-03-05T12:24:57.684Z,66.97
2019-03-05T12:26:00.204Z,67.25
2019-03-05T12:26:56.460Z,64.97
2019-03-05T12:28:09.449Z,63.35
2019-03-05T12:28:56.311Z,67.35
2019-03-05T12:29:57.568Z,66.30
2019-03-05T12:30:57.371Z,62.21
2019-03-05T12:31:56.303Z,62.24
2019-03-05T12:32:59.792Z,60.82
2019-03-05T12:33:56.984Z,68.62
2019-03-05T12:35:01.252Z,72.62
2019-03-05T12:35:56.052Z,73.76
2019-03-05T12:37:02.214Z,71.86
2019-03-05T12:37:56.066Z,73.95
2019-03-05T12:38:55.917Z,84.61
2019-03-05T12:39:56.610Z,81.09
2019-03-05T12:40:59.630Z,84.04
2019-03-05T12:41:59.513Z,85.47
2019-03-05T12:42:56.083Z,77.76
2019-03-05T12:43:55.852Z,87.46
2019-03-05T12:44:55.704Z,85.18
2019-03-05T12:45:55.839Z,85.08
2019-03-05T12:46:55.599Z,86.13
2019-03-05T12:47:56.929Z,87.94
2019-03-05T12:48:55.574Z,91.80
2019-03-05T12:49:57.612Z,87.85
2019-03-05T12:50:56.020Z,88.70
2019-03-05T12:51:55.546Z,85.99
2019-03-05T12:52:55.439Z,88.18
2019-03-05T12:53:55.325Z,86.09
2019-03-05T12:54:56.284Z,87.61
2019-03-05T12:55:55.235Z,91.99
2019-03-05T12:56:56.255Z,90.08
2019-03-05T12:58:02.667Z,89.89
2019-03-05T12:58:55.122Z,88.66
2019-03-05T12:59:55.392Z,90.28
2019-03-05T13:00:57.114Z,94.46
2019-03-05T13:01:55.463Z,94.56
2019-03-05T13:02:55.061Z,91.89
2019-03-05T13:03:54.924Z,91.61
2019-03-05T13:04:55.189Z,95.70
2019-03-05T13:05:55.843Z,95.89
2019-03-05T13:06:54.806Z,92.08
2019-03-05T13:07:57.737Z,91.13
2019-03-05T13:08:55.096Z,90.47
2019-03-05T13:09:56.875Z,92.18
2019-03-05T13:10:55.580Z,92.65
2019-03-05T13:11:54.743Z,90.66
2019-03-05T13:12:54.598Z,89.51
2019-03-05T13:14:05.760Z,90.66
2019-03-05T13:14:54.720Z,90.94
2019-03-05T13:15:56.499Z,89.04
2019-03-05T13:16:54.443Z,88.56
2019-03-05T13:17:54.649Z,88.75
2019-03-05T13:18:54.704Z,88.37
2019-03-05T13:19:54.294Z,90.37
2019-03-05T13:20:54.260Z,88.37
2019-03-05T13:21:56.124Z,87.42
2019-03-05T13:22:59.324Z,87.42
2019-03-05T13:23:56.899Z,89.51
2019-03-05T13:24:57.665Z,88.56
2019-03-05T13:25:54.620Z,95.79
2019-03-05T13:26:54.046Z,93.79
2019-03-05T13:27:57.685Z,95.41
2019-03-05T13:28:54.088Z,99.69
2019-03-05T13:29:53.951Z,96.08
2019-03-05T13:30:55.974Z,95.79
2019-03-05T13:31:54.198Z,95.89
2019-03-05T13:32:58.860Z,94.84
2019-03-05T13:33:54.785Z,95.70
2019-03-05T13:34:53.690Z,92.27
2019-03-05T13:35:53.960Z,94.65
2019-03-05T13:36:55.002Z,92.84
2019-03-05T13:37:53.738Z,95.51
2019-03-05T13:38:54.095Z,96.17
2019-03-05T13:39:55.033Z,99.79
2019-03-05T13:40:53.945Z,96.17
2019-03-05T13:41:53.815Z,97.50
2019-03-05T13:42:53.530Z,98.55
2019-03-05T13:43:55.455Z,96.94
2019-03-05T13:44:53.558Z,99.60
2019-03-05T13:45:53.249Z,96.26
2019-03-05T13:46:53.678Z,94.84
2019-03-05T13:47:54.509Z,98.36
2019-03-05T13:48:58.404Z,94.89
2019-03-05T13:49:57.548Z,97.27
2019-03-05T13:50:53.049Z,95.75
2019-03-05T13:51:56.150Z,98.88
2019-03-05T13:52:52.967Z,99.74
2019-03-05T13:54:00.830Z,99.99
2019-03-05T13:54:52.897Z,99.74
2019-03-05T13:55:52.858Z,97.55
2019-03-05T13:56:52.859Z,97.51
2019-03-05T13:57:55.030Z,98.74
2019-03-05T13:58:52.850Z,96.65
2019-03-05T13:59:53.246Z,96.75
2019-03-05T14:00:52.759Z,96.65
2019-03-05T14:01:53.835Z,96.17
2019-03-05T14:02:53.147Z,94.84
2019-03-05T14:03:52.581Z,96.08
2019-03-05T14:04:52.619Z,96.08
2019-03-05T14:05:52.456Z,94.93
2019-03-05T14:06:52.422Z,96.08
2019-03-05T14:07:52.392Z,95.98
2019-03-05T14:08:52.360Z,95.41
2019-03-05T14:09:52.321Z,96.17
2019-03-05T14:10:52.256Z,92.36
2019-03-05T14:11:52.226Z,93.79
2019-03-05T14:12:52.296Z,95.12
2019-03-05T14:13:52.946Z,97.60
2019-03-05T14:14:52.112Z,96.17
2019-03-05T14:15:52.217Z,91.99
2019-03-05T14:16:52.021Z,92.89
2019-03-05T14:17:51.984Z,94.74
2019-03-05T14:18:53.032Z,92.27
2019-03-05T14:19:52.042Z,95.08
2019-03-05T14:20:52.348Z,93.65
2019-03-05T14:21:51.931Z,94.03
2019-03-05T14:22:51.897Z,95.94
2019-03-05T14:23:51.855Z,97.74
2019-03-05T14:25:01.699Z,95.08
2019-03-05T14:25:53.758Z,95.08
2019-03-05T14:26:51.902Z,96.22
2019-03-05T14:27:51.596Z,93.74
2019-03-05T14:28:51.802Z,96.22
2019-03-05T14:29:51.741Z,96.12
2019-03-05T14:30:51.608Z,94.89
2019-03-05T14:31:51.667Z,97.17
2019-03-05T14:32:57.833Z,99.65
2019-03-05T14:33:52.035Z,97.17
2019-03-05T14:34:52.620Z,95.46
2019-03-05T14:35:51.949Z,95.75
2019-03-05T14:36:51.352Z,97.08
2019-03-05T14:37:51.590Z,95.27
2019-03-05T14:38:51.263Z,95.27
2019-03-05T14:39:51.322Z,89.70
2019-03-05T14:40:51.084Z,90.89
2019-03-05T14:41:51.418Z,89.79
2019-03-05T14:42:51.070Z,90.75
2019-03-05T14:43:51.172Z,88.99
2019-03-05T14:44:51.033Z,87.85
2019-03-05T14:45:51.067Z,90.84
2019-03-05T14:46:51.322Z,90.94
2019-03-05T14:47:53.059Z,87.23
2019-03-05T14:48:50.788Z,92.27
2019-03-05T14:49:51.074Z,90.46
2019-03-05T14:50:51.925Z,90.36
2019-03-05T14:51:56.107Z,91.70
2019-03-05T14:52:59.102Z,93.13
2019-03-05T14:54:01.366Z,93.70